Musk Ox, AK

4:53 AM AKST on January 22, 2017 (GMT -0900)
MD1454 | | Change Station

Elev 577 ft 64.89 °N, 147.88 °W | Updated 10 minutes ago

Partly Cloudy
Partly Cloudy
-27.0 °F
Feels Like -27.0 °F
N
-
Wind Variable Wind from North

Today
High -- | Low -- °F
--% Chance of Precip.
Yesterday
High -- | Low -- °F
Precip. -- in
Pressure 29.99 in
Visibility 7.0 miles
Clouds Few 11000 ft
Dew Point Not available.
Humidity Not available.
Rainfall in
Snow Depth Not available.
10:07 AM 4:00 PM
Waning Crescent, 26% visible
METAR PAFA 221253Z 18003KT 7SM FEW110 M32/M34 A2992 RMK AO2 SLP153 T13221344 VISNO NE $
Pressure 29.99 in
Visibility 7.0 miles
Clouds Few 11000 ft
Dew Point Not available.
Humidity Not available.
Rainfall in
Snow Depth Not available.
10:07 AM 4:00 PM
Waning Crescent, 26% visible
METAR PAFA 221253Z 18003KT 7SM FEW110 M32/M34 A2992 RMK AO2 SLP153 T13221344 VISNO NE $

Get Your Daily Forecast Email!

Thanks for signing up!

Be on the lookout for a verification email in your inbox.

You'll start receiving the daily forecast at 8 AM.

×

10-Day Weather Forecast

Almanac

Astronomy

Jan. 22, 2017 Rise Set
Actual Time
Civil Twilight
Nautical Twilight
Astronomical Twilight
Moon
Length of Visible Light
Length of Day
Tomorrow will be .
, % of the Moon is Illuminated

Today's Extremes

State Highs State Lows

Community

WunderPhotos

Upload Photos

1,962,540 photos uploaded!

WunderBlog® & News

Nearby

Air Quality

  Air Quality AQ Index Pollutant
Not available.

Snow Depth

Station Depth Elevation

Earthquake Activity

City Distance Mag. Time & Date
Minimum magnitude displayed is 2.5.

Coastal Water Temperatures

Place Temperature

Stations

Nearby Weather Stations

Station Location Temp. Windchill Dew Point Humidity Wind Precip. Elev Updated Type
                   

Watches & Warnings

There are currently no watches in effect.